sensor_id;sensor_type;location;lat;lon;timestamp;P1;durP1;ratioP1;P2;durP2;ratioP2
3991;SDS011;2010;48.194;16.394;2023-03-31T00:01:08;1.87;;;1.40;;
3991;SDS011;2010;48.194;16.394;2023-03-31T00:03:40;2.70;;;1.60;;
3991;SDS011;2010;48.194;16.394;2023-03-31T00:06:16;2.10;;;1.20;;
3991;SDS011;2010;48.194;16.394;2023-03-31T00:08:46;2.33;;;1.20;;
3991;SDS011;2010;48.194;16.394;2023-03-31T00:11:22;2.23;;;1.57;;
3991;SDS011;2010;48.194;16.394;2023-03-31T00:13:50;1.53;;;1.40;;
3991;SDS011;2010;48.194;16.394;2023-03-31T00:16:21;2.00;;;1.80;;
3991;SDS011;2010;48.194;16.394;2023-03-31T00:18:50;3.87;;;1.87;;
3991;SDS011;2010;48.194;16.394;2023-03-31T00:21:24;2.77;;;1.23;;
3991;SDS011;2010;48.194;16.394;2023-03-31T00:24:04;2.67;;;1.43;;
3991;SDS011;2010;48.194;16.394;2023-03-31T00:26:40;3.87;;;1.80;;
3991;SDS011;2010;48.194;16.394;2023-03-31T00:29:13;4.93;;;1.80;;
3991;SDS011;2010;48.194;16.394;2023-03-31T00:31:44;4.03;;;1.23;;
3991;SDS011;2010;48.194;16.394;2023-03-31T00:34:16;1.90;;;1.40;;
3991;SDS011;2010;48.194;16.394;2023-03-31T00:36:48;8.63;;;1.77;;
3991;SDS011;2010;48.194;16.394;2023-03-31T00:39:17;1.30;;;1.20;;
3991;SDS011;2010;48.194;16.394;2023-03-31T00:41:52;1.23;;;0.90;;
3991;SDS011;2010;48.194;16.394;2023-03-31T00:44:23;1.20;;;1.10;;
3991;SDS011;2010;48.194;16.394;2023-03-31T00:46:53;1.83;;;1.73;;
3991;SDS011;2010;48.194;16.394;2023-03-31T00:49:26;2.60;;;1.50;;
3991;SDS011;2010;48.194;16.394;2023-03-31T00:52:06;1.53;;;1.40;;
3991;SDS011;2010;48.194;16.394;2023-03-31T00:54:40;2.03;;;1.63;;
3991;SDS011;2010;48.194;16.394;2023-03-31T00:57:27;1.70;;;1.60;;
3991;SDS011;2010;48.194;16.394;2023-03-31T01:00:03;1.60;;;1.50;;
3991;SDS011;2010;48.194;16.394;2023-03-31T01:02:41;1.93;;;1.30;;
3991;SDS011;2010;48.194;16.394;2023-03-31T01:05:19;2.20;;;1.90;;
3991;SDS011;2010;48.194;16.394;2023-03-31T01:07:51;2.80;;;1.60;;
3991;SDS011;2010;48.194;16.394;2023-03-31T01:10:32;3.17;;;2.10;;
3991;SDS011;2010;48.194;16.394;2023-03-31T01:13:12;3.83;;;2.10;;
3991;SDS011;2010;48.194;16.394;2023-03-31T01:15:46;2.43;;;2.00;;
3991;SDS011;2010;48.194;16.394;2023-03-31T01:18:16;4.23;;;1.87;;
3991;SDS011;2010;48.194;16.394;2023-03-31T01:20:54;2.47;;;1.90;;
3991;SDS011;2010;48.194;16.394;2023-03-31T01:26:55;2.43;;;2.03;;
3991;SDS011;2010;48.194;16.394;2023-03-31T01:29:44;3.23;;;2.17;;
3991;SDS011;2010;48.194;16.394;2023-03-31T01:41:49;3.27;;;2.07;;
3991;SDS011;2010;48.194;16.394;2023-03-31T01:44:28;4.00;;;2.77;;
3991;SDS011;2010;48.194;16.394;2023-03-31T01:47:07;3.40;;;2.23;;
3991;SDS011;2010;48.194;16.394;2023-03-31T01:49:48;3.10;;;2.43;;
3991;SDS011;2010;48.194;16.394;2023-03-31T01:52:30;4.30;;;2.50;;
3991;SDS011;2010;48.194;16.394;2023-03-31T01:55:05;9.27;;;2.53;;
3991;SDS011;2010;48.194;16.394;2023-03-31T01:57:51;3.17;;;2.87;;
3991;SDS011;2010;48.194;16.394;2023-03-31T02:00:33;4.13;;;2.93;;
3991;SDS011;2010;48.194;16.394;2023-03-31T02:03:08;3.10;;;2.80;;
3991;SDS011;2010;48.194;16.394;2023-03-31T02:05:46;5.50;;;2.90;;
3991;SDS011;2010;48.194;16.394;2023-03-31T02:08:17;7.73;;;2.97;;
3991;SDS011;2010;48.194;16.394;2023-03-31T02:10:50;6.10;;;2.90;;
3991;SDS011;2010;48.194;16.394;2023-03-31T02:13:25;3.63;;;3.23;;
3991;SDS011;2010;48.194;16.394;2023-03-31T02:15:56;3.10;;;2.80;;
3991;SDS011;2010;48.194;16.394;2023-03-31T02:18:35;3.80;;;2.97;;
3991;SDS011;2010;48.194;16.394;2023-03-31T02:21:15;3.03;;;2.73;;
3991;SDS011;2010;48.194;16.394;2023-03-31T02:23:48;5.00;;;2.83;;
3991;SDS011;2010;48.194;16.394;2023-03-31T02:26:23;6.67;;;3.00;;
3991;SDS011;2010;48.194;16.394;2023-03-31T02:29:09;4.93;;;3.30;;
3991;SDS011;2010;48.194;16.394;2023-03-31T02:31:41;2.60;;;2.37;;
3991;SDS011;2010;48.194;16.394;2023-03-31T02:34:15;3.93;;;2.70;;
3991;SDS011;2010;48.194;16.394;2023-03-31T02:36:47;5.80;;;3.37;;
3991;SDS011;2010;48.194;16.394;2023-03-31T02:39:18;5.10;;;2.93;;
3991;SDS011;2010;48.194;16.394;2023-03-31T02:41:52;3.30;;;3.00;;
3991;SDS011;2010;48.194;16.394;2023-03-31T02:44:28;2.70;;;2.50;;
3991;SDS011;2010;48.194;16.394;2023-03-31T02:46:59;4.13;;;2.77;;
3991;SDS011;2010;48.194;16.394;2023-03-31T02:49:29;3.53;;;2.73;;
3991;SDS011;2010;48.194;16.394;2023-03-31T02:55:04;4.00;;;2.90;;
3991;SDS011;2010;48.194;16.394;2023-03-31T02:57:58;2.83;;;2.63;;
3991;SDS011;2010;48.194;16.394;2023-03-31T03:00:38;5.37;;;3.13;;
3991;SDS011;2010;48.194;16.394;2023-03-31T03:03:19;3.87;;;3.10;;
3991;SDS011;2010;48.194;16.394;2023-03-31T03:06:00;6.00;;;3.13;;
3991;SDS011;2010;48.194;16.394;2023-03-31T03:08:57;5.13;;;3.30;;
3991;SDS011;2010;48.194;16.394;2023-03-31T03:11:38;4.47;;;3.00;;
3991;SDS011;2010;48.194;16.394;2023-03-31T03:14:17;5.10;;;2.90;;
3991;SDS011;2010;48.194;16.394;2023-03-31T03:17:09;6.17;;;3.33;;
3991;SDS011;2010;48.194;16.394;2023-03-31T03:19:42;5.97;;;3.40;;
3991;SDS011;2010;48.194;16.394;2023-03-31T03:22:14;12.43;;;2.97;;
3991;SDS011;2010;48.194;16.394;2023-03-31T03:24:49;6.40;;;2.73;;
3991;SDS011;2010;48.194;16.394;2023-03-31T03:27:18;4.50;;;3.30;;
3991;SDS011;2010;48.194;16.394;2023-03-31T03:29:50;3.33;;;2.67;;
3991;SDS011;2010;48.194;16.394;2023-03-31T03:32:35;3.73;;;3.03;;
3991;SDS011;2010;48.194;16.394;2023-03-31T03:35:10;6.33;;;3.10;;
3991;SDS011;2010;48.194;16.394;2023-03-31T03:37:46;3.07;;;2.70;;
3991;SDS011;2010;48.194;16.394;2023-03-31T03:40:16;6.17;;;2.90;;
3991;SDS011;2010;48.194;16.394;2023-03-31T03:42:46;9.40;;;3.73;;
3991;SDS011;2010;48.194;16.394;2023-03-31T03:45:15;5.67;;;3.33;;
3991;SDS011;2010;48.194;16.394;2023-03-31T03:47:48;4.90;;;2.90;;
3991;SDS011;2010;48.194;16.394;2023-03-31T03:50:20;4.73;;;3.30;;
3991;SDS011;2010;48.194;16.394;2023-03-31T03:52:50;3.70;;;3.27;;
3991;SDS011;2010;48.194;16.394;2023-03-31T03:55:21;7.40;;;3.27;;
3991;SDS011;2010;48.194;16.394;2023-03-31T03:57:52;14.03;;;3.00;;
3991;SDS011;2010;48.194;16.394;2023-03-31T04:00:24;5.07;;;3.37;;
3991;SDS011;2010;48.194;16.394;2023-03-31T04:02:55;4.07;;;2.80;;
3991;SDS011;2010;48.194;16.394;2023-03-31T04:05:28;4.10;;;3.13;;
3991;SDS011;2010;48.194;16.394;2023-03-31T04:07:56;6.03;;;2.87;;
3991;SDS011;2010;48.194;16.394;2023-03-31T04:10:26;6.90;;;2.67;;
3991;SDS011;2010;48.194;16.394;2023-03-31T04:12:55;3.27;;;2.97;;
3991;SDS011;2010;48.194;16.394;2023-03-31T04:15:30;4.70;;;2.43;;
3991;SDS011;2010;48.194;16.394;2023-03-31T04:18:03;6.20;;;3.67;;
3991;SDS011;2010;48.194;16.394;2023-03-31T04:20:31;5.10;;;2.50;;
3991;SDS011;2010;48.194;16.394;2023-03-31T04:23:04;3.50;;;2.50;;
3991;SDS011;2010;48.194;16.394;2023-03-31T04:25:36;3.10;;;2.60;;
3991;SDS011;2010;48.194;16.394;2023-03-31T04:28:12;4.70;;;2.27;;
3991;SDS011;2010;48.194;16.394;2023-03-31T04:30:55;3.90;;;2.20;;
3991;SDS011;2010;48.194;16.394;2023-03-31T04:33:27;5.13;;;2.50;;
3991;SDS011;2010;48.194;16.394;2023-03-31T04:35:56;2.40;;;2.20;;
3991;SDS011;2010;48.194;16.394;2023-03-31T04:38:33;2.10;;;2.00;;
3991;SDS011;2010;48.194;16.394;2023-03-31T04:41:02;2.17;;;1.97;;
3991;SDS011;2010;48.194;16.394;2023-03-31T04:43:38;3.13;;;2.47;;
3991;SDS011;2010;48.194;16.394;2023-03-31T04:46:12;2.40;;;2.10;;
3991;SDS011;2010;48.194;16.394;2023-03-31T04:48:47;4.20;;;2.63;;
3991;SDS011;2010;48.194;16.394;2023-03-31T04:51:20;3.43;;;2.90;;
3991;SDS011;2010;48.194;16.394;2023-03-31T04:53:51;6.23;;;2.67;;
3991;SDS011;2010;48.194;16.394;2023-03-31T04:56:22;3.00;;;2.73;;
3991;SDS011;2010;48.194;16.394;2023-03-31T04:58:55;7.77;;;3.40;;
3991;SDS011;2010;48.194;16.394;2023-03-31T05:01:26;6.47;;;3.53;;
3991;SDS011;2010;48.194;16.394;2023-03-31T05:04:07;4.97;;;3.10;;
3991;SDS011;2010;48.194;16.394;2023-03-31T05:06:36;5.83;;;3.10;;
3991;SDS011;2010;48.194;16.394;2023-03-31T05:09:06;9.33;;;3.70;;
3991;SDS011;2010;48.194;16.394;2023-03-31T05:11:35;9.83;;;4.67;;
3991;SDS011;2010;48.194;16.394;2023-03-31T05:14:05;5.10;;;3.80;;
3991;SDS011;2010;48.194;16.394;2023-03-31T05:16:36;6.50;;;4.80;;
3991;SDS011;2010;48.194;16.394;2023-03-31T05:19:22;5.97;;;4.23;;
3991;SDS011;2010;48.194;16.394;2023-03-31T05:21:53;12.00;;;5.60;;
3991;SDS011;2010;48.194;16.394;2023-03-31T05:24:23;10.00;;;6.20;;
3991;SDS011;2010;48.194;16.394;2023-03-31T05:26:55;9.47;;;6.00;;
3991;SDS011;2010;48.194;16.394;2023-03-31T05:29:31;6.50;;;4.90;;
3991;SDS011;2010;48.194;16.394;2023-03-31T05:32:09;10.13;;;5.30;;
3991;SDS011;2010;48.194;16.394;2023-03-31T05:34:41;5.97;;;4.70;;
3991;SDS011;2010;48.194;16.394;2023-03-31T05:37:09;7.13;;;5.30;;
3991;SDS011;2010;48.194;16.394;2023-03-31T05:39:39;9.53;;;5.43;;
3991;SDS011;2010;48.194;16.394;2023-03-31T05:42:07;8.03;;;4.53;;
3991;SDS011;2010;48.194;16.394;2023-03-31T05:44:38;9.10;;;5.90;;
3991;SDS011;2010;48.194;16.394;2023-03-31T05:47:14;13.03;;;5.27;;
3991;SDS011;2010;48.194;16.394;2023-03-31T05:50:06;13.60;;;4.43;;
3991;SDS011;2010;48.194;16.394;2023-03-31T05:52:42;7.90;;;4.50;;
3991;SDS011;2010;48.194;16.394;2023-03-31T05:55:13;5.33;;;4.50;;
3991;SDS011;2010;48.194;16.394;2023-03-31T05:57:45;13.27;;;5.63;;
3991;SDS011;2010;48.194;16.394;2023-03-31T06:00:24;9.17;;;5.13;;
3991;SDS011;2010;48.194;16.394;2023-03-31T06:02:54;7.77;;;5.00;;
3991;SDS011;2010;48.194;16.394;2023-03-31T06:05:28;9.10;;;5.53;;
3991;SDS011;2010;48.194;16.394;2023-03-31T06:07:57;12.57;;;5.33;;
3991;SDS011;2010;48.194;16.394;2023-03-31T06:10:27;8.67;;;5.20;;
3991;SDS011;2010;48.194;16.394;2023-03-31T06:12:56;9.57;;;5.30;;
3991;SDS011;2010;48.194;16.394;2023-03-31T06:15:25;8.40;;;5.50;;
3991;SDS011;2010;48.194;16.394;2023-03-31T06:17:56;6.83;;;5.40;;
3991;SDS011;2010;48.194;16.394;2023-03-31T06:20:29;6.43;;;5.50;;
3991;SDS011;2010;48.194;16.394;2023-03-31T06:23:05;8.83;;;6.60;;
3991;SDS011;2010;48.194;16.394;2023-03-31T06:25:37;9.83;;;5.60;;
3991;SDS011;2010;48.194;16.394;2023-03-31T06:28:17;11.10;;;5.93;;
3991;SDS011;2010;48.194;16.394;2023-03-31T06:30:48;7.10;;;5.80;;
3991;SDS011;2010;48.194;16.394;2023-03-31T06:33:18;15.63;;;5.77;;
3991;SDS011;2010;48.194;16.394;2023-03-31T06:35:52;14.37;;;6.47;;
3991;SDS011;2010;48.194;16.394;2023-03-31T06:38:24;8.90;;;6.10;;
3991;SDS011;2010;48.194;16.394;2023-03-31T06:40:54;10.30;;;5.70;;
3991;SDS011;2010;48.194;16.394;2023-03-31T06:43:25;10.10;;;6.23;;
3991;SDS011;2010;48.194;16.394;2023-03-31T06:45:56;13.73;;;6.13;;
3991;SDS011;2010;48.194;16.394;2023-03-31T06:48:25;9.70;;;5.87;;
3991;SDS011;2010;48.194;16.394;2023-03-31T06:51:10;9.70;;;6.07;;
3991;SDS011;2010;48.194;16.394;2023-03-31T06:53:47;13.37;;;6.17;;
3991;SDS011;2010;48.194;16.394;2023-03-31T06:56:16;14.93;;;5.43;;
3991;SDS011;2010;48.194;16.394;2023-03-31T06:58:52;11.70;;;5.60;;
3991;SDS011;2010;48.194;16.394;2023-03-31T07:01:23;11.87;;;5.20;;
3991;SDS011;2010;48.194;16.394;2023-03-31T07:03:53;6.43;;;4.37;;
3991;SDS011;2010;48.194;16.394;2023-03-31T07:06:34;7.83;;;4.33;;
3991;SDS011;2010;48.194;16.394;2023-03-31T07:09:03;12.40;;;4.50;;
3991;SDS011;2010;48.194;16.394;2023-03-31T07:11:34;7.10;;;3.93;;
3991;SDS011;2010;48.194;16.394;2023-03-31T07:14:04;9.47;;;3.00;;
3991;SDS011;2010;48.194;16.394;2023-03-31T07:16:32;4.33;;;2.90;;
3991;SDS011;2010;48.194;16.394;2023-03-31T07:19:03;2.77;;;2.40;;
3991;SDS011;2010;48.194;16.394;2023-03-31T07:21:36;6.17;;;2.37;;
3991;SDS011;2010;48.194;16.394;2023-03-31T07:24:04;4.13;;;2.80;;
3991;SDS011;2010;48.194;16.394;2023-03-31T07:26:33;6.70;;;2.60;;
3991;SDS011;2010;48.194;16.394;2023-03-31T07:29:02;6.10;;;4.63;;
3991;SDS011;2010;48.194;16.394;2023-03-31T07:31:34;13.73;;;6.10;;
3991;SDS011;2010;48.194;16.394;2023-03-31T07:34:06;8.73;;;4.63;;
3991;SDS011;2010;48.194;16.394;2023-03-31T07:36:40;10.30;;;3.67;;
3991;SDS011;2010;48.194;16.394;2023-03-31T07:39:12;8.60;;;2.70;;
3991;SDS011;2010;48.194;16.394;2023-03-31T07:41:40;8.43;;;3.33;;
3991;SDS011;2010;48.194;16.394;2023-03-31T07:44:09;6.90;;;3.10;;
3991;SDS011;2010;48.194;16.394;2023-03-31T07:46:55;5.57;;;4.10;;
3991;SDS011;2010;48.194;16.394;2023-03-31T07:49:33;5.97;;;3.53;;
3991;SDS011;2010;48.194;16.394;2023-03-31T07:52:17;5.43;;;4.07;;
3991;SDS011;2010;48.194;16.394;2023-03-31T07:54:49;6.90;;;3.10;;
3991;SDS011;2010;48.194;16.394;2023-03-31T07:57:25;5.40;;;3.20;;
3991;SDS011;2010;48.194;16.394;2023-03-31T07:59:55;3.40;;;3.10;;
3991;SDS011;2010;48.194;16.394;2023-03-31T08:02:24;5.57;;;3.13;;
3991;SDS011;2010;48.194;16.394;2023-03-31T08:04:53;5.43;;;3.33;;
3991;SDS011;2010;48.194;16.394;2023-03-31T08:07:29;5.90;;;3.00;;
3991;SDS011;2010;48.194;16.394;2023-03-31T08:10:04;7.13;;;2.60;;
3991;SDS011;2010;48.194;16.394;2023-03-31T08:12:40;10.70;;;3.07;;
3991;SDS011;2010;48.194;16.394;2023-03-31T08:15:10;5.13;;;2.10;;
3991;SDS011;2010;48.194;16.394;2023-03-31T08:17:39;4.33;;;2.53;;
3991;SDS011;2010;48.194;16.394;2023-03-31T08:20:11;5.03;;;2.50;;
3991;SDS011;2010;48.194;16.394;2023-03-31T08:22:46;4.53;;;2.53;;
3991;SDS011;2010;48.194;16.394;2023-03-31T08:25:21;3.30;;;2.20;;
3991;SDS011;2010;48.194;16.394;2023-03-31T08:27:55;5.80;;;2.20;;
3991;SDS011;2010;48.194;16.394;2023-03-31T08:30:26;3.00;;;1.87;;
3991;SDS011;2010;48.194;16.394;2023-03-31T08:32:55;3.20;;;2.50;;
3991;SDS011;2010;48.194;16.394;2023-03-31T08:35:24;7.00;;;2.40;;
3991;SDS011;2010;48.194;16.394;2023-03-31T08:37:59;4.67;;;2.80;;
3991;SDS011;2010;48.194;16.394;2023-03-31T08:40:32;4.93;;;2.03;;
3991;SDS011;2010;48.194;16.394;2023-03-31T08:43:10;4.70;;;3.07;;
3991;SDS011;2010;48.194;16.394;2023-03-31T08:45:43;5.80;;;2.20;;
3991;SDS011;2010;48.194;16.394;2023-03-31T08:48:17;5.77;;;2.50;;
3991;SDS011;2010;48.194;16.394;2023-03-31T08:51:10;7.10;;;2.53;;
3991;SDS011;2010;48.194;16.394;2023-03-31T08:53:48;4.50;;;2.00;;
3991;SDS011;2010;48.194;16.394;2023-03-31T08:56:23;3.13;;;2.00;;
3991;SDS011;2010;48.194;16.394;2023-03-31T08:58:59;5.33;;;2.40;;
3991;SDS011;2010;48.194;16.394;2023-03-31T09:01:32;4.73;;;2.30;;
3991;SDS011;2010;48.194;16.394;2023-03-31T09:04:27;8.93;;;2.40;;
3991;SDS011;2010;48.194;16.394;2023-03-31T09:07:21;5.30;;;2.50;;
3991;SDS011;2010;48.194;16.394;2023-03-31T09:10:05;5.17;;;2.80;;
3991;SDS011;2010;48.194;16.394;2023-03-31T09:12:52;6.37;;;2.80;;
3991;SDS011;2010;48.194;16.394;2023-03-31T09:15:25;4.33;;;3.30;;
3991;SDS011;2010;48.194;16.394;2023-03-31T09:17:56;11.17;;;3.63;;
3991;SDS011;2010;48.194;16.394;2023-03-31T09:20:31;5.57;;;3.40;;
3991;SDS011;2010;48.194;16.394;2023-03-31T09:23:07;5.50;;;3.10;;
3991;SDS011;2010;48.194;16.394;2023-03-31T09:25:50;4.57;;;3.73;;
3991;SDS011;2010;48.194;16.394;2023-03-31T09:28:30;8.50;;;4.77;;
3991;SDS011;2010;48.194;16.394;2023-03-31T09:31:10;10.00;;;3.83;;
3991;SDS011;2010;48.194;16.394;2023-03-31T09:33:47;7.80;;;3.83;;
3991;SDS011;2010;48.194;16.394;2023-03-31T09:36:17;7.97;;;4.87;;
3991;SDS011;2010;48.194;16.394;2023-03-31T09:38:50;6.40;;;4.10;;
3991;SDS011;2010;48.194;16.394;2023-03-31T09:41:34;7.23;;;4.60;;
3991;SDS011;2010;48.194;16.394;2023-03-31T09:44:03;4.83;;;3.13;;
3991;SDS011;2010;48.194;16.394;2023-03-31T09:46:35;7.27;;;4.53;;
3991;SDS011;2010;48.194;16.394;2023-03-31T09:49:09;7.50;;;4.20;;
3991;SDS011;2010;48.194;16.394;2023-03-31T09:51:41;9.53;;;3.80;;
3991;SDS011;2010;48.194;16.394;2023-03-31T09:54:15;5.00;;;3.43;;
3991;SDS011;2010;48.194;16.394;2023-03-31T09:56:49;7.97;;;4.27;;
3991;SDS011;2010;48.194;16.394;2023-03-31T09:59:21;4.63;;;3.90;;
3991;SDS011;2010;48.194;16.394;2023-03-31T10:01:51;4.57;;;3.47;;
3991;SDS011;2010;48.194;16.394;2023-03-31T10:04:29;8.50;;;4.30;;
3991;SDS011;2010;48.194;16.394;2023-03-31T10:06:59;10.13;;;4.00;;
3991;SDS011;2010;48.194;16.394;2023-03-31T10:09:43;6.47;;;4.30;;
3991;SDS011;2010;48.194;16.394;2023-03-31T10:12:18;8.63;;;3.70;;
3991;SDS011;2010;48.194;16.394;2023-03-31T10:15:00;5.37;;;3.77;;
3991;SDS011;2010;48.194;16.394;2023-03-31T10:17:40;6.57;;;4.00;;
3991;SDS011;2010;48.194;16.394;2023-03-31T10:20:29;11.27;;;4.60;;
3991;SDS011;2010;48.194;16.394;2023-03-31T10:23:03;4.17;;;3.50;;
3991;SDS011;2010;48.194;16.394;2023-03-31T10:25:43;6.37;;;4.23;;
3991;SDS011;2010;48.194;16.394;2023-03-31T10:28:22;4.40;;;3.93;;
3991;SDS011;2010;48.194;16.394;2023-03-31T10:30:56;7.30;;;3.70;;
3991;SDS011;2010;48.194;16.394;2023-03-31T10:33:32;3.20;;;3.00;;
3991;SDS011;2010;48.194;16.394;2023-03-31T10:36:06;4.93;;;3.90;;
3991;SDS011;2010;48.194;16.394;2023-03-31T10:38:53;4.57;;;4.17;;
3991;SDS011;2010;48.194;16.394;2023-03-31T10:41:24;7.63;;;3.83;;
3991;SDS011;2010;48.194;16.394;2023-03-31T10:44:02;4.10;;;3.80;;
3991;SDS011;2010;48.194;16.394;2023-03-31T10:46:42;10.60;;;4.60;;
3991;SDS011;2010;48.194;16.394;2023-03-31T10:49:23;4.07;;;3.63;;
3991;SDS011;2010;48.194;16.394;2023-03-31T10:51:54;3.83;;;3.50;;
3991;SDS011;2010;48.194;16.394;2023-03-31T10:54:25;5.30;;;4.00;;
3991;SDS011;2010;48.194;16.394;2023-03-31T10:56:55;4.10;;;3.40;;
3991;SDS011;2010;48.194;16.394;2023-03-31T10:59:38;4.27;;;3.27;;
3991;SDS011;2010;48.194;16.394;2023-03-31T11:05:18;4.13;;;3.00;;
3991;SDS011;2010;48.194;16.394;2023-03-31T11:07:58;4.53;;;3.20;;
3991;SDS011;2010;48.194;16.394;2023-03-31T11:10:42;5.03;;;3.37;;
3991;SDS011;2010;48.194;16.394;2023-03-31T11:13:31;11.60;;;3.27;;
3991;SDS011;2010;48.194;16.394;2023-03-31T11:16:20;5.43;;;3.50;;
3991;SDS011;2010;48.194;16.394;2023-03-31T11:19:01;4.33;;;2.80;;
3991;SDS011;2010;48.194;16.394;2023-03-31T11:21:56;2.90;;;2.70;;
3991;SDS011;2010;48.194;16.394;2023-03-31T11:24:36;3.80;;;3.13;;
3991;SDS011;2010;48.194;16.394;2023-03-31T11:27:21;4.43;;;3.53;;
3991;SDS011;2010;48.194;16.394;2023-03-31T11:30:05;7.97;;;3.20;;
3991;SDS011;2010;48.194;16.394;2023-03-31T11:35:40;3.53;;;3.00;;
3991;SDS011;2010;48.194;16.394;2023-03-31T11:38:28;4.23;;;3.13;;
3991;SDS011;2010;48.194;16.394;2023-03-31T11:41:04;3.40;;;3.03;;
3991;SDS011;2010;48.194;16.394;2023-03-31T11:43:52;4.10;;;3.13;;
3991;SDS011;2010;48.194;16.394;2023-03-31T11:46:25;4.83;;;2.93;;
3991;SDS011;2010;48.194;16.394;2023-03-31T11:49:07;3.53;;;3.23;;
3991;SDS011;2010;48.194;16.394;2023-03-31T11:51:47;6.00;;;3.43;;
3991;SDS011;2010;48.194;16.394;2023-03-31T11:54:23;3.43;;;2.60;;
3991;SDS011;2010;48.194;16.394;2023-03-31T11:56:54;5.90;;;3.10;;
3991;SDS011;2010;48.194;16.394;2023-03-31T11:59:24;5.37;;;3.17;;
3991;SDS011;2010;48.194;16.394;2023-03-31T12:01:57;8.73;;;3.33;;
3991;SDS011;2010;48.194;16.394;2023-03-31T12:04:38;5.20;;;3.10;;
3991;SDS011;2010;48.194;16.394;2023-03-31T12:07:14;6.63;;;3.00;;
3991;SDS011;2010;48.194;16.394;2023-03-31T12:09:54;6.30;;;2.77;;
3991;SDS011;2010;48.194;16.394;2023-03-31T12:12:32;4.10;;;2.63;;
3991;SDS011;2010;48.194;16.394;2023-03-31T12:15:09;3.33;;;3.03;;
3991;SDS011;2010;48.194;16.394;2023-03-31T12:17:46;6.53;;;3.33;;
3991;SDS011;2010;48.194;16.394;2023-03-31T12:20:27;8.30;;;3.33;;
3991;SDS011;2010;48.194;16.394;2023-03-31T12:23:00;9.43;;;3.30;;
3991;SDS011;2010;48.194;16.394;2023-03-31T12:25:43;3.43;;;2.53;;
3991;SDS011;2010;48.194;16.394;2023-03-31T12:28:17;4.73;;;2.77;;
3991;SDS011;2010;48.194;16.394;2023-03-31T12:30:49;2.97;;;2.77;;
3991;SDS011;2010;48.194;16.394;2023-03-31T12:33:22;6.07;;;2.70;;
3991;SDS011;2010;48.194;16.394;2023-03-31T12:36:00;5.00;;;3.20;;
3991;SDS011;2010;48.194;16.394;2023-03-31T12:38:50;3.10;;;2.80;;
3991;SDS011;2010;48.194;16.394;2023-03-31T12:41:30;3.90;;;2.43;;
3991;SDS011;2010;48.194;16.394;2023-03-31T12:44:12;3.53;;;2.90;;
3991;SDS011;2010;48.194;16.394;2023-03-31T12:46:55;3.23;;;2.93;;
3991;SDS011;2010;48.194;16.394;2023-03-31T12:53:26;3.43;;;2.80;;
3991;SDS011;2010;48.194;16.394;2023-03-31T12:56:01;6.00;;;2.83;;
3991;SDS011;2010;48.194;16.394;2023-03-31T13:01:27;3.27;;;2.97;;
3991;SDS011;2010;48.194;16.394;2023-03-31T13:04:16;3.83;;;2.73;;
3991;SDS011;2010;48.194;16.394;2023-03-31T13:06:53;3.70;;;3.23;;
3991;SDS011;2010;48.194;16.394;2023-03-31T13:12:31;4.67;;;2.77;;
3991;SDS011;2010;48.194;16.394;2023-03-31T13:15:02;3.17;;;2.63;;
3991;SDS011;2010;48.194;16.394;2023-03-31T13:17:33;3.57;;;3.00;;
3991;SDS011;2010;48.194;16.394;2023-03-31T13:23:03;3.80;;;3.30;;
3991;SDS011;2010;48.194;16.394;2023-03-31T13:25:40;3.33;;;2.90;;
3991;SDS011;2010;48.194;16.394;2023-03-31T13:31:13;2.87;;;2.60;;
3991;SDS011;2010;48.194;16.394;2023-03-31T13:33:55;4.50;;;2.80;;
3991;SDS011;2010;48.194;16.394;2023-03-31T13:39:26;6.50;;;3.20;;
3991;SDS011;2010;48.194;16.394;2023-03-31T13:42:11;3.13;;;2.93;;
3991;SDS011;2010;48.194;16.394;2023-03-31T13:47:54;2.03;;;1.83;;
3991;SDS011;2010;48.194;16.394;2023-03-31T13:53:27;3.67;;;1.93;;
3991;SDS011;2010;48.194;16.394;2023-03-31T13:56:11;2.50;;;1.80;;
3991;SDS011;2010;48.194;16.394;2023-03-31T13:59:00;2.00;;;1.60;;
3991;SDS011;2010;48.194;16.394;2023-03-31T14:07:49;5.37;;;2.30;;
3991;SDS011;2010;48.194;16.394;2023-03-31T14:10:22;5.50;;;2.23;;
3991;SDS011;2010;48.194;16.394;2023-03-31T14:13:07;2.53;;;2.30;;
3991;SDS011;2010;48.194;16.394;2023-03-31T14:15:49;2.40;;;2.07;;
3991;SDS011;2010;48.194;16.394;2023-03-31T14:18:25;4.83;;;2.20;;
3991;SDS011;2010;48.194;16.394;2023-03-31T14:20:58;2.60;;;2.30;;
3991;SDS011;2010;48.194;16.394;2023-03-31T14:23:45;5.03;;;2.53;;
3991;SDS011;2010;48.194;16.394;2023-03-31T14:26:26;2.20;;;2.10;;
3991;SDS011;2010;48.194;16.394;2023-03-31T14:29:14;2.30;;;2.10;;
3991;SDS011;2010;48.194;16.394;2023-03-31T14:31:51;5.83;;;2.20;;
3991;SDS011;2010;48.194;16.394;2023-03-31T14:37:25;2.20;;;2.00;;
3991;SDS011;2010;48.194;16.394;2023-03-31T14:39:56;2.07;;;1.97;;
3991;SDS011;2010;48.194;16.394;2023-03-31T14:42:28;3.20;;;2.20;;
3991;SDS011;2010;48.194;16.394;2023-03-31T14:45:14;6.33;;;2.43;;
3991;SDS011;2010;48.194;16.394;2023-03-31T14:47:57;3.73;;;2.23;;
3991;SDS011;2010;48.194;16.394;2023-03-31T14:50:35;2.37;;;2.17;;
3991;SDS011;2010;48.194;16.394;2023-03-31T14:53:03;3.00;;;2.50;;
3991;SDS011;2010;48.194;16.394;2023-03-31T14:55:33;3.00;;;2.53;;
3991;SDS011;2010;48.194;16.394;2023-03-31T14:58:05;3.30;;;2.33;;
3991;SDS011;2010;48.194;16.394;2023-03-31T15:00:35;4.20;;;2.70;;
3991;SDS011;2010;48.194;16.394;2023-03-31T15:03:08;4.53;;;2.57;;
3991;SDS011;2010;48.194;16.394;2023-03-31T15:05:49;5.00;;;2.70;;
3991;SDS011;2010;48.194;16.394;2023-03-31T15:08:25;8.30;;;2.50;;
3991;SDS011;2010;48.194;16.394;2023-03-31T15:11:03;3.10;;;2.47;;
3991;SDS011;2010;48.194;16.394;2023-03-31T15:13:38;4.83;;;3.10;;
3991;SDS011;2010;48.194;16.394;2023-03-31T15:16:33;2.20;;;2.00;;
3991;SDS011;2010;48.194;16.394;2023-03-31T15:19:14;2.50;;;2.30;;
3991;SDS011;2010;48.194;16.394;2023-03-31T15:22:08;3.13;;;2.07;;
3991;SDS011;2010;48.194;16.394;2023-03-31T15:24:43;1.67;;;1.50;;
3991;SDS011;2010;48.194;16.394;2023-03-31T15:27:13;2.33;;;1.30;;
3991;SDS011;2010;48.194;16.394;2023-03-31T15:29:55;2.03;;;1.83;;
3991;SDS011;2010;48.194;16.394;2023-03-31T15:32:36;5.40;;;1.60;;
3991;SDS011;2010;48.194;16.394;2023-03-31T15:35:19;2.33;;;1.43;;
3991;SDS011;2010;48.194;16.394;2023-03-31T15:37:50;1.40;;;1.30;;
3991;SDS011;2010;48.194;16.394;2023-03-31T15:40:20;2.40;;;1.60;;
3991;SDS011;2010;48.194;16.394;2023-03-31T15:42:54;2.60;;;1.07;;
3991;SDS011;2010;48.194;16.394;2023-03-31T15:45:46;1.83;;;1.00;;
3991;SDS011;2010;48.194;16.394;2023-03-31T15:48:20;3.27;;;1.23;;
3991;SDS011;2010;48.194;16.394;2023-03-31T15:50:53;1.80;;;1.40;;
3991;SDS011;2010;48.194;16.394;2023-03-31T15:53:34;1.20;;;1.10;;
3991;SDS011;2010;48.194;16.394;2023-03-31T15:56:06;1.90;;;1.20;;
3991;SDS011;2010;48.194;16.394;2023-03-31T16:01:34;2.40;;;1.33;;
3991;SDS011;2010;48.194;16.394;2023-03-31T16:04:17;2.97;;;1.63;;
3991;SDS011;2010;48.194;16.394;2023-03-31T16:06:50;1.50;;;1.40;;
3991;SDS011;2010;48.194;16.394;2023-03-31T16:09:22;2.37;;;1.40;;
3991;SDS011;2010;48.194;16.394;2023-03-31T16:11:54;4.00;;;1.70;;
3991;SDS011;2010;48.194;16.394;2023-03-31T16:14:25;1.60;;;1.50;;
3991;SDS011;2010;48.194;16.394;2023-03-31T16:16:58;2.03;;;1.60;;
3991;SDS011;2010;48.194;16.394;2023-03-31T16:19:32;1.60;;;1.50;;
3991;SDS011;2010;48.194;16.394;2023-03-31T16:22:16;3.63;;;1.70;;
3991;SDS011;2010;48.194;16.394;2023-03-31T16:24:48;2.97;;;1.67;;
3991;SDS011;2010;48.194;16.394;2023-03-31T16:27:20;1.67;;;1.57;;
3991;SDS011;2010;48.194;16.394;2023-03-31T16:30:04;2.77;;;2.30;;
3991;SDS011;2010;48.194;16.394;2023-03-31T16:32:34;2.83;;;1.60;;
3991;SDS011;2010;48.194;16.394;2023-03-31T16:35:07;2.20;;;2.00;;
3991;SDS011;2010;48.194;16.394;2023-03-31T16:37:44;4.20;;;1.83;;
3991;SDS011;2010;48.194;16.394;2023-03-31T16:40:14;1.80;;;1.70;;
3991;SDS011;2010;48.194;16.394;2023-03-31T16:43:12;5.43;;;1.90;;
3991;SDS011;2010;48.194;16.394;2023-03-31T16:45:53;2.60;;;2.17;;
3991;SDS011;2010;48.194;16.394;2023-03-31T16:48:27;2.57;;;2.00;;
3991;SDS011;2010;48.194;16.394;2023-03-31T16:51:05;3.60;;;2.50;;